createdAt,value
2023-02-04T00:00:39.017Z,80.26
2023-02-04T00:03:07.611Z,80.99
2023-02-04T00:05:36.006Z,80.38
2023-02-04T00:08:07.174Z,81.36
2023-02-04T00:10:35.718Z,81.07
2023-02-04T00:13:05.049Z,80.38
2023-02-04T00:15:33.390Z,80.95
2023-02-04T00:18:03.438Z,80.60
2023-02-04T00:20:32.063Z,80.47
2023-02-04T00:25:44.856Z,80.90
2023-02-04T00:28:13.161Z,80.74
2023-02-04T00:30:41.346Z,80.14
2023-02-04T00:33:11.003Z,80.44
2023-02-04T00:35:39.278Z,80.98
2023-02-04T00:38:10.001Z,81.01
2023-02-04T00:40:38.998Z,80.74
2023-02-04T00:43:07.377Z,81.55
2023-02-04T00:45:35.684Z,80.94
2023-02-04T00:48:03.931Z,80.43
2023-02-04T00:50:35.092Z,80.02
2023-02-04T00:53:05.150Z,80.16
2023-02-04T00:55:33.346Z,80.29
2023-02-04T00:58:01.609Z,80.38
2023-02-04T01:00:30.270Z,80.43
2023-02-04T01:03:00.093Z,81.00
2023-02-04T01:05:28.386Z,80.83
2023-02-04T01:07:58.139Z,81.35
2023-02-04T01:10:26.878Z,81.32
2023-02-04T01:12:55.157Z,81.83
2023-02-04T01:15:23.407Z,82.14
2023-02-04T01:17:51.701Z,82.74
2023-02-04T01:20:20.193Z,82.57
2023-02-04T01:22:48.519Z,82.74
2023-02-04T01:25:21.565Z,82.88
2023-02-04T01:27:49.824Z,82.74
2023-02-04T01:30:18.243Z,83.26
2023-02-04T01:32:46.445Z,83.43
2023-02-04T01:35:14.858Z,83.97
2023-02-04T01:37:43.058Z,84.02
2023-02-04T01:40:14.012Z,84.19
2023-02-04T01:42:44.671Z,84.67
2023-02-04T01:45:13.173Z,84.81
2023-02-04T01:47:42.014Z,85.19
2023-02-04T01:50:14.163Z,85.22
2023-02-04T01:52:45.430Z,85.92
2023-02-04T01:55:16.782Z,86.40
2023-02-04T01:57:46.986Z,86.43
2023-02-04T02:00:19.101Z,86.81
2023-02-04T02:02:50.446Z,87.20
2023-02-04T02:05:22.020Z,87.71
2023-02-04T02:07:51.344Z,87.88
2023-02-04T02:10:20.200Z,87.69
2023-02-04T02:12:50.591Z,88.47
2023-02-04T02:15:22.345Z,88.64
2023-02-04T02:17:51.070Z,88.51
2023-02-04T02:20:24.187Z,88.51
2023-02-04T02:23:02.532Z,89.29
2023-02-04T02:25:32.507Z,89.38
2023-02-04T02:28:02.924Z,89.79
2023-02-04T02:30:31.688Z,89.84
2023-02-04T02:33:00.414Z,90.37
2023-02-04T02:35:29.963Z,90.72
2023-02-04T02:37:58.510Z,90.84
2023-02-04T02:40:27.085Z,91.25
2023-02-04T02:42:56.939Z,91.48
2023-02-04T02:45:27.779Z,91.06
2023-02-04T02:47:57.737Z,91.95
2023-02-04T02:50:29.323Z,92.35
2023-02-04T02:52:57.824Z,92.44
2023-02-04T02:55:28.588Z,92.94
2023-02-04T02:57:58.809Z,93.48
2023-02-04T03:00:29.147Z,93.99
2023-02-04T03:03:01.700Z,93.95
2023-02-04T03:05:32.658Z,93.72
2023-02-04T03:08:01.624Z,93.72
2023-02-04T03:10:30.540Z,93.85
2023-02-04T03:13:01.511Z,93.82
2023-02-04T03:15:30.031Z,93.80
2023-02-04T03:17:58.822Z,94.49
2023-02-04T03:20:30.180Z,94.17
2023-02-04T03:22:59.275Z,94.52
2023-02-04T03:25:28.456Z,95.02
2023-02-04T03:27:58.515Z,95.40
2023-02-04T03:30:28.854Z,95.88
2023-02-04T03:32:57.428Z,95.91
2023-02-04T03:35:28.657Z,95.56
2023-02-04T03:37:56.905Z,96.28
2023-02-04T03:40:25.133Z,95.56
2023-02-04T03:42:53.336Z,96.51
2023-02-04T03:45:27.061Z,96.51
2023-02-04T03:47:58.465Z,97.01
2023-02-04T03:50:31.017Z,96.44
2023-02-04T03:52:59.428Z,96.95
2023-02-04T03:55:27.769Z,97.30
2023-02-04T03:57:56.018Z,96.75
2023-02-04T04:00:27.214Z,97.49
2023-02-04T04:02:55.812Z,97.31
2023-02-04T04:05:25.822Z,97.04
2023-02-04T04:07:54.084Z,97.36
2023-02-04T04:10:22.504Z,97.02
2023-02-04T04:12:50.753Z,97.36
2023-02-04T04:15:24.869Z,97.26
2023-02-04T04:17:53.142Z,97.29
2023-02-04T04:20:25.513Z,96.76
2023-02-04T04:22:58.019Z,97.55
2023-02-04T04:25:26.426Z,97.04
2023-02-04T04:27:54.716Z,97.35
2023-02-04T04:30:23.199Z,97.71
2023-02-04T04:32:51.406Z,97.19
2023-02-04T04:35:19.581Z,97.35
2023-02-04T04:37:47.782Z,97.57
2023-02-04T04:40:17.733Z,98.00
2023-02-04T04:42:45.980Z,97.38
2023-02-04T04:45:14.607Z,97.84
2023-02-04T04:47:43.326Z,97.66
2023-02-04T04:50:13.117Z,97.98
2023-02-04T04:52:41.431Z,98.24
2023-02-04T04:55:10.568Z,97.95
2023-02-04T04:57:40.448Z,97.84
2023-02-04T05:00:10.501Z,98.53
2023-02-04T05:02:38.669Z,98.55
2023-02-04T05:05:07.622Z,98.41
2023-02-04T05:07:35.940Z,98.64
2023-02-04T05:10:04.224Z,98.77
2023-02-04T05:12:32.757Z,98.88
2023-02-04T05:15:02.467Z,98.74
2023-02-04T05:17:31.182Z,98.85
2023-02-04T05:19:59.433Z,98.61
2023-02-04T05:22:29.488Z,98.80
2023-02-04T05:24:57.689Z,99.09
2023-02-04T05:27:25.985Z,98.95
2023-02-04T05:29:54.151Z,98.91
2023-02-04T05:32:26.054Z,99.08
2023-02-04T05:34:54.291Z,98.45
2023-02-04T05:37:22.566Z,98.30
2023-02-04T05:39:50.752Z,98.18
2023-02-04T05:42:19.074Z,98.20
2023-02-04T05:44:47.390Z,97.88
2023-02-04T05:47:15.756Z,97.91
2023-02-04T05:49:45.725Z,97.93
2023-02-04T05:52:15.282Z,97.41
2023-02-04T05:54:43.549Z,97.78
2023-02-04T05:57:11.853Z,97.48
2023-02-04T05:59:40.115Z,97.39
2023-02-04T06:02:08.344Z,97.17
2023-02-04T06:04:36.722Z,97.25
2023-02-04T06:07:06.337Z,97.40
2023-02-04T06:09:34.538Z,96.93
2023-02-04T06:12:02.835Z,96.90
2023-02-04T06:14:31.058Z,97.35
2023-02-04T06:16:59.942Z,96.98
2023-02-04T06:19:28.149Z,97.40
2023-02-04T06:21:56.350Z,97.29
2023-02-04T06:24:26.053Z,97.29
2023-02-04T06:26:54.320Z,97.54
2023-02-04T06:29:22.570Z,97.81
2023-02-04T06:31:51.213Z,97.43
2023-02-04T06:34:19.684Z,97.71
2023-02-04T06:36:48.086Z,97.53
2023-02-04T06:39:16.310Z,97.78
2023-02-04T06:41:45.992Z,97.55
2023-02-04T06:44:14.243Z,97.00
2023-02-04T06:46:42.660Z,97.20
2023-02-04T06:49:10.964Z,97.32
2023-02-04T06:51:39.825Z,97.04
2023-02-04T06:54:08.132Z,97.29
2023-02-04T06:56:38.049Z,97.07
2023-02-04T06:59:07.677Z,96.33
2023-02-04T07:01:35.963Z,96.53
2023-02-04T07:04:04.334Z,96.74
2023-02-04T07:06:32.612Z,96.79
2023-02-04T07:09:00.882Z,96.55
2023-02-04T07:11:29.172Z,96.77
2023-02-04T07:13:59.324Z,96.78
2023-02-04T07:16:29.848Z,96.44
2023-02-04T07:18:58.172Z,96.22
2023-02-04T07:21:27.150Z,96.23
2023-02-04T07:23:55.394Z,96.80
2023-02-04T07:26:23.725Z,96.40
2023-02-04T07:28:52.363Z,96.57
2023-02-04T07:31:20.784Z,96.63
2023-02-04T07:33:52.859Z,96.13
2023-02-04T07:36:21.128Z,96.27
2023-02-04T07:38:49.412Z,96.26
2023-02-04T07:41:17.591Z,96.51
2023-02-04T07:43:46.116Z,96.46
2023-02-04T07:46:14.490Z,96.33
2023-02-04T07:48:43.911Z,96.22
2023-02-04T07:51:18.362Z,95.70
2023-02-04T07:53:46.742Z,96.01
2023-02-04T07:56:14.975Z,95.84
2023-02-04T07:58:43.194Z,95.32
2023-02-04T08:01:11.474Z,95.38
2023-02-04T08:03:41.746Z,95.18
2023-02-04T08:06:10.234Z,94.90
2023-02-04T08:08:40.008Z,94.53
2023-02-04T08:11:08.221Z,94.52
2023-02-04T08:13:36.501Z,94.44
2023-02-04T08:16:04.851Z,93.90
2023-02-04T08:18:33.100Z,94.00
2023-02-04T08:21:03.328Z,93.27
2023-02-04T08:23:31.645Z,92.88
2023-02-04T08:26:01.630Z,93.02
2023-02-04T08:28:29.893Z,92.87
2023-02-04T08:30:58.114Z,92.25
2023-02-04T08:33:26.363Z,92.21
2023-02-04T08:35:54.793Z,90.98
2023-02-04T08:38:23.057Z,91.23
2023-02-04T08:40:51.514Z,91.25
2023-02-04T08:43:21.136Z,90.58
2023-02-04T08:45:49.736Z,90.03
2023-02-04T08:48:18.852Z,89.77
2023-02-04T08:50:47.120Z,90.18
2023-02-04T08:53:15.308Z,89.52
2023-02-04T08:55:43.593Z,88.93
2023-02-04T08:58:12.061Z,88.72
2023-02-04T09:00:41.679Z,88.48
2023-02-04T09:03:09.940Z,87.92
2023-02-04T09:05:38.240Z,88.16
2023-02-04T09:08:06.639Z,88.11
2023-02-04T09:10:35.085Z,88.36
2023-02-04T09:13:03.377Z,87.58
2023-02-04T09:15:31.567Z,86.90
2023-02-04T09:18:11.596Z,87.62
2023-02-04T09:20:39.810Z,87.17
2023-02-04T09:23:09.140Z,86.38
2023-02-04T09:25:37.558Z,86.96
2023-02-04T09:28:06.261Z,86.45
2023-02-04T09:30:34.935Z,86.01
2023-02-04T09:33:05.014Z,86.23
2023-02-04T09:35:33.178Z,86.88
2023-02-04T09:38:02.304Z,86.02
2023-02-04T09:40:35.406Z,86.23
2023-02-04T09:43:05.722Z,85.93
2023-02-04T09:45:36.764Z,85.87
2023-02-04T09:48:10.270Z,85.43
2023-02-04T09:50:38.881Z,85.12
2023-02-04T09:53:08.483Z,85.66
2023-02-04T09:55:40.849Z,85.47
2023-02-04T09:58:16.147Z,85.03
2023-02-04T10:00:45.665Z,83.70
2023-02-04T10:03:18.855Z,84.98
2023-02-04T10:05:48.252Z,82.55
2023-02-04T10:08:18.554Z,82.23
2023-02-04T10:10:47.974Z,82.31
2023-02-04T10:13:19.745Z,82.97
2023-02-04T10:15:49.958Z,81.79
2023-02-04T10:18:25.579Z,82.01
2023-02-04T10:20:56.852Z,82.17
2023-02-04T10:23:25.130Z,81.80
2023-02-04T10:25:53.413Z,81.82
2023-02-04T10:28:21.697Z,80.63
2023-02-04T10:30:50.044Z,80.59
2023-02-04T10:33:25.530Z,81.31
2023-02-04T10:35:56.533Z,80.34
2023-02-04T10:38:25.792Z,80.59
2023-02-04T10:41:02.407Z,79.75
2023-02-04T10:43:32.171Z,80.17
2023-02-04T10:46:03.345Z,80.17
2023-02-04T10:48:41.886Z,79.62
2023-02-04T10:51:14.081Z,79.79
2023-02-04T10:54:01.768Z,78.28
2023-02-04T10:56:32.196Z,78.33
2023-02-04T10:59:00.424Z,77.67
2023-02-04T11:01:31.063Z,77.77
2023-02-04T11:04:00.871Z,77.62
2023-02-04T11:06:29.989Z,77.40
2023-02-04T11:09:00.725Z,77.30
2023-02-04T11:11:29.414Z,76.47
2023-02-04T11:14:04.410Z,77.17
2023-02-04T11:16:35.716Z,78.69
2023-02-04T11:19:07.335Z,78.13
2023-02-04T11:21:45.944Z,78.25
2023-02-04T11:24:26.249Z,78.66
2023-02-04T11:27:06.999Z,79.01
2023-02-04T11:29:38.421Z,79.11
2023-02-04T11:32:08.956Z,79.21
2023-02-04T11:34:51.488Z,79.51
2023-02-04T11:37:35.717Z,79.75
2023-02-04T11:40:23.944Z,77.90
2023-02-04T11:42:58.594Z,77.10
2023-02-04T11:45:31.253Z,77.64
2023-02-04T11:48:04.168Z,77.16
2023-02-04T11:50:35.583Z,76.14
2023-02-04T11:53:03.941Z,76.39
2023-02-04T11:55:36.292Z,75.85
2023-02-04T11:58:05.601Z,75.33
2023-02-04T12:00:35.206Z,75.63
2023-02-04T12:03:08.003Z,77.32
2023-02-04T12:05:43.405Z,77.54
2023-02-04T12:08:14.189Z,77.32
2023-02-04T12:10:50.369Z,77.72
2023-02-04T12:13:23.767Z,77.99
2023-02-04T12:16:00.507Z,78.70
2023-02-04T12:18:29.711Z,78.69
2023-02-04T12:21:00.372Z,78.45
2023-02-04T12:23:30.749Z,79.34
2023-02-04T12:25:59.964Z,78.99
2023-02-04T12:28:29.200Z,78.25
2023-02-04T12:30:58.735Z,78.49
2023-02-04T12:33:27.616Z,78.42
2023-02-04T12:35:58.592Z,78.49
2023-02-04T12:38:27.741Z,77.57
2023-02-04T12:41:00.787Z,77.61
2023-02-04T12:43:29.048Z,77.68
2023-02-04T12:45:57.332Z,77.60
2023-02-04T12:48:26.177Z,78.16
2023-02-04T12:50:54.546Z,77.77
2023-02-04T12:53:24.305Z,77.88
2023-02-04T12:55:52.591Z,77.27
2023-02-04T12:58:23.001Z,77.98
2023-02-04T13:00:51.658Z,77.83
2023-02-04T13:03:19.858Z,77.52
2023-02-04T13:05:48.052Z,76.48
2023-02-04T13:08:16.234Z,76.32
2023-02-04T13:10:50.242Z,75.89
2023-02-04T13:13:18.471Z,76.92
2023-02-04T13:15:46.891Z,76.84
2023-02-04T13:18:17.355Z,75.21
2023-02-04T13:20:46.126Z,75.56
2023-02-04T13:23:14.404Z,74.59
2023-02-04T13:25:43.891Z,75.74
2023-02-04T13:28:14.107Z,75.19
2023-02-04T13:30:42.506Z,74.98
2023-02-04T13:33:10.827Z,75.60
2023-02-04T13:35:39.367Z,75.17
2023-02-04T13:38:07.537Z,75.47
2023-02-04T13:40:35.722Z,75.01
2023-02-04T13:43:03.992Z,75.22
2023-02-04T13:45:35.184Z,75.28
2023-02-04T13:48:03.625Z,75.10
2023-02-04T13:50:35.434Z,74.69
2023-02-04T13:53:03.672Z,75.20
2023-02-04T13:55:32.251Z,75.19
2023-02-04T13:58:00.622Z,74.94
2023-02-04T14:00:29.125Z,74.05
2023-02-04T14:02:58.817Z,73.60
2023-02-04T14:05:29.657Z,73.70
2023-02-04T14:07:57.928Z,73.69
2023-02-04T14:10:27.349Z,73.70
2023-02-04T14:12:55.562Z,73.91
2023-02-04T14:15:23.789Z,74.48
2023-02-04T14:17:52.181Z,74.09
2023-02-04T14:20:23.446Z,74.61
2023-02-04T14:22:51.640Z,74.10
2023-02-04T14:25:20.341Z,74.30
2023-02-04T14:27:48.594Z,74.49
2023-02-04T14:30:19.155Z,74.19
2023-02-04T14:32:47.476Z,74.38
2023-02-04T14:35:17.785Z,74.25
2023-02-04T14:37:47.488Z,74.54
2023-02-04T14:40:17.616Z,74.48
2023-02-04T14:42:45.953Z,74.01
2023-02-04T14:45:16.114Z,74.34
2023-02-04T14:47:44.443Z,74.07
2023-02-04T14:50:16.341Z,74.04
2023-02-04T14:52:44.911Z,73.83
2023-02-04T14:55:15.429Z,73.74
2023-02-04T14:57:43.691Z,73.66
2023-02-04T15:00:13.362Z,73.87
2023-02-04T15:02:42.519Z,73.60
2023-02-04T15:05:11.466Z,73.79
2023-02-04T15:07:39.891Z,74.11
2023-02-04T15:10:09.200Z,73.99
2023-02-04T15:12:38.920Z,74.20
2023-02-04T15:15:07.871Z,74.21
2023-02-04T15:17:36.091Z,74.73
2023-02-04T15:20:04.792Z,75.06
2023-02-04T15:22:33.613Z,76.06
2023-02-04T15:25:01.930Z,77.41
2023-02-04T15:27:30.699Z,78.10
2023-02-04T15:30:00.317Z,79.62
2023-02-04T15:32:28.611Z,79.33
2023-02-04T15:34:56.867Z,80.56
2023-02-04T15:37:25.843Z,82.12
2023-02-04T15:39:56.801Z,82.44
2023-02-04T15:42:25.229Z,83.42
2023-02-04T15:44:55.452Z,84.02
2023-02-04T15:47:27.401Z,84.36
2023-02-04T15:49:57.245Z,85.30
2023-02-04T15:52:26.034Z,85.00
2023-02-04T15:54:54.762Z,85.25
2023-02-04T15:57:23.074Z,85.48
2023-02-04T15:59:51.320Z,86.15
2023-02-04T16:02:20.025Z,86.34
2023-02-04T16:04:50.400Z,86.06
2023-02-04T16:07:18.681Z,86.35
2023-02-04T16:09:46.945Z,86.36
2023-02-04T16:12:15.188Z,86.28
2023-02-04T16:14:43.456Z,86.83
2023-02-04T16:17:11.868Z,87.14
2023-02-04T16:19:40.100Z,87.65
2023-02-04T16:22:09.923Z,87.64
2023-02-04T16:24:38.727Z,87.32
2023-02-04T16:27:07.362Z,87.79
2023-02-04T16:29:35.635Z,88.07
2023-02-04T16:32:03.812Z,88.44
2023-02-04T16:34:33.748Z,88.24
2023-02-04T16:37:01.980Z,88.67
2023-02-04T16:39:31.600Z,88.37
2023-02-04T16:41:59.812Z,87.95
2023-02-04T16:44:29.906Z,88.82
2023-02-04T16:46:58.112Z,88.62
2023-02-04T16:49:26.354Z,89.37
2023-02-04T16:51:56.160Z,88.55
2023-02-04T16:54:24.386Z,88.85
2023-02-04T16:56:55.494Z,89.53
2023-02-04T16:59:24.298Z,89.42
2023-02-04T17:01:52.863Z,89.35
2023-02-04T17:04:21.997Z,90.40
2023-02-04T17:06:51.061Z,90.46
2023-02-04T17:09:19.493Z,91.28
2023-02-04T17:11:48.102Z,90.98
2023-02-04T17:14:17.837Z,91.57
2023-02-04T17:16:47.217Z,92.11
2023-02-04T17:19:19.175Z,92.35
2023-02-04T17:21:48.846Z,92.44
2023-02-04T17:24:17.086Z,92.57
2023-02-04T17:26:47.634Z,92.34
2023-02-04T17:29:18.538Z,92.69
2023-02-04T17:31:47.189Z,93.31
2023-02-04T17:34:15.554Z,92.42
2023-02-04T17:36:43.736Z,92.84
2023-02-04T17:39:12.273Z,93.65
2023-02-04T17:41:40.471Z,93.08
2023-02-04T17:44:08.726Z,94.03
2023-02-04T17:46:38.393Z,94.41
2023-02-04T17:49:06.648Z,93.74
2023-02-04T17:51:35.327Z,94.10
2023-02-04T17:54:03.531Z,94.73
2023-02-04T17:56:31.856Z,94.98
2023-02-04T17:59:00.316Z,95.19
2023-02-04T18:01:28.623Z,95.67
2023-02-04T18:03:59.354Z,96.70
2023-02-04T18:06:29.290Z,96.76
2023-02-04T18:09:02.006Z,96.45
2023-02-04T18:11:37.186Z,97.23
2023-02-04T18:14:14.462Z,97.34
2023-02-04T18:16:42.837Z,96.75
2023-02-04T18:19:18.918Z,96.88
2023-02-04T18:21:48.074Z,96.92
2023-02-04T18:24:19.528Z,97.39
2023-02-04T18:26:50.319Z,98.16
2023-02-04T18:29:33.667Z,98.11
2023-02-04T18:32:04.470Z,98.25
2023-02-04T18:34:38.725Z,98.62
2023-02-04T18:37:31.930Z,98.42
2023-02-04T18:40:22.309Z,98.06
2023-02-04T18:42:50.931Z,97.66
2023-02-04T18:45:28.057Z,97.19
2023-02-04T18:47:59.399Z,98.09
2023-02-04T18:50:32.005Z,98.74
2023-02-04T18:53:09.882Z,99.79
2023-02-04T18:55:39.242Z,99.59
2023-02-04T18:58:26.415Z,99.03
2023-02-04T19:00:59.640Z,98.87
2023-02-04T19:03:30.059Z,99.49
2023-02-04T19:06:02.082Z,99.02
2023-02-04T19:08:33.405Z,98.29
2023-02-04T19:11:01.769Z,98.84
2023-02-04T19:13:40.194Z,99.76
2023-02-04T19:16:28.287Z,99.48
2023-02-04T19:18:56.729Z,99.12
2023-02-04T19:21:29.223Z,98.24
2023-02-04T19:24:03.057Z,99.54
2023-02-04T19:26:35.634Z,99.57
2023-02-04T19:29:37.249Z,99.23
2023-02-04T19:32:27.480Z,100.00
2023-02-04T19:34:58.864Z,100.00
2023-02-04T19:37:35.134Z,100.00
2023-02-04T19:40:03.569Z,100.00
2023-02-04T19:42:35.541Z,100.00
2023-02-04T19:45:15.177Z,100.00
2023-02-04T19:47:46.476Z,100.00
2023-02-04T19:50:33.962Z,99.56
2023-02-04T19:53:06.584Z,98.33
2023-02-04T19:55:38.187Z,98.32
2023-02-04T19:58:22.046Z,98.23
2023-02-04T20:00:59.244Z,100.00
2023-02-04T20:03:36.952Z,100.00
2023-02-04T20:06:30.338Z,100.00
2023-02-04T20:09:12.310Z,100.00
2023-02-04T20:12:06.120Z,100.00
2023-02-04T20:14:58.459Z,100.00
2023-02-04T20:17:41.576Z,100.00
2023-02-04T20:20:22.571Z,100.00
2023-02-04T20:22:53.196Z,100.00
2023-02-04T20:25:47.499Z,100.00
2023-02-04T20:28:22.373Z,100.00
2023-02-04T20:30:52.508Z,100.00
2023-02-04T20:33:30.534Z,100.00
2023-02-04T20:36:30.174Z,100.00
2023-02-04T20:39:15.573Z,100.00
2023-02-04T20:41:45.244Z,98.82
2023-02-04T20:44:18.148Z,100.00
2023-02-04T20:46:47.633Z,100.00
2023-02-04T20:49:27.140Z,100.00
2023-02-04T20:52:00.460Z,100.00
2023-02-04T20:54:31.359Z,100.00
2023-02-04T20:57:16.332Z,100.00
2023-02-04T20:59:45.275Z,100.00
2023-02-04T21:02:18.459Z,100.00
2023-02-04T21:04:52.179Z,100.00
2023-02-04T21:07:22.603Z,100.00
2023-02-04T21:09:51.783Z,100.00
2023-02-04T21:12:21.921Z,100.00
2023-02-04T21:14:50.416Z,100.00
2023-02-04T21:17:19.042Z,100.00
2023-02-04T21:19:47.249Z,100.00
2023-02-04T21:22:15.581Z,100.00
2023-02-04T21:24:44.796Z,100.00
2023-02-04T21:27:13.116Z,100.00
2023-02-04T21:29:42.732Z,100.00
2023-02-04T21:32:11.120Z,100.00
2023-02-04T21:34:39.416Z,100.00
2023-02-04T21:37:09.109Z,100.00
2023-02-04T21:39:37.354Z,100.00
2023-02-04T21:42:11.592Z,100.00
2023-02-04T21:44:40.159Z,100.00
2023-02-04T21:47:10.226Z,100.00
2023-02-04T21:49:41.971Z,100.00
2023-02-04T21:52:11.986Z,100.00
2023-02-04T21:54:41.899Z,100.00
2023-02-04T21:57:10.172Z,100.00
2023-02-04T21:59:38.575Z,100.00
2023-02-04T22:02:07.004Z,100.00
2023-02-04T22:04:36.665Z,100.00
2023-02-04T22:07:04.967Z,100.00
2023-02-04T22:09:33.142Z,100.00
2023-02-04T22:12:02.479Z,100.00
2023-02-04T22:14:30.717Z,100.00
2023-02-04T22:16:58.892Z,100.00
2023-02-04T22:19:27.123Z,100.00
2023-02-04T22:21:56.783Z,100.00
2023-02-04T22:24:25.784Z,100.00
2023-02-04T22:26:54.002Z,100.00
2023-02-04T22:29:25.089Z,100.00
2023-02-04T22:31:53.341Z,100.00
2023-02-04T22:34:22.407Z,100.00
2023-02-04T22:36:50.650Z,100.00
2023-02-04T22:39:20.757Z,100.00
2023-02-04T22:41:48.982Z,100.00
2023-02-04T22:44:17.628Z,100.00
2023-02-04T22:46:47.520Z,100.00
2023-02-04T22:49:16.675Z,100.00
2023-02-04T22:51:45.672Z,100.00
2023-02-04T22:54:14.286Z,100.00
2023-02-04T22:56:43.949Z,100.00
2023-02-04T22:59:12.607Z,100.00
2023-02-04T23:01:41.829Z,100.00
2023-02-04T23:04:10.078Z,100.00
2023-02-04T23:06:38.723Z,100.00
2023-02-04T23:09:07.048Z,100.00
2023-02-04T23:11:35.295Z,100.00
2023-02-04T23:14:04.969Z,100.00
2023-02-04T23:16:33.291Z,100.00
2023-02-04T23:19:01.513Z,100.00
2023-02-04T23:21:29.865Z,100.00
2023-02-04T23:23:58.264Z,100.00
2023-02-04T23:26:26.644Z,100.00
2023-02-04T23:28:54.801Z,100.00
2023-02-04T23:31:24.610Z,100.00
2023-02-04T23:33:53.087Z,100.00
2023-02-04T23:36:21.621Z,100.00
2023-02-04T23:38:49.813Z,100.00
2023-02-04T23:41:18.084Z,100.00
2023-02-04T23:43:46.359Z,100.00
2023-02-04T23:46:14.715Z,100.00
2023-02-04T23:48:45.055Z,100.00
2023-02-04T23:51:14.824Z,100.00
2023-02-04T23:53:43.011Z,100.00
2023-02-04T23:56:11.310Z,100.00
2023-02-04T23:58:39.900Z,100.00
